createdAt,value
2022-12-05T00:01:21.607Z,32.50
2022-12-05T00:03:53.701Z,32.70
2022-12-05T00:06:28.615Z,31.57
2022-12-05T00:08:57.480Z,32.23
2022-12-05T00:11:34.609Z,33.03
2022-12-05T00:14:03.506Z,32.17
2022-12-05T00:16:40.759Z,32.97
2022-12-05T00:19:12.072Z,32.43
2022-12-05T00:21:47.597Z,33.17
2022-12-05T00:24:17.490Z,33.07
2022-12-05T00:26:51.633Z,31.60
2022-12-05T00:29:19.722Z,31.73
2022-12-05T00:31:54.663Z,31.87
2022-12-05T00:34:24.209Z,31.97
2022-12-05T00:36:58.652Z,32.03
2022-12-05T00:39:26.743Z,32.67
2022-12-05T00:42:01.646Z,32.83
2022-12-05T00:44:29.719Z,32.37
2022-12-05T00:47:04.639Z,31.73
2022-12-05T00:49:40.647Z,32.07
2022-12-05T00:52:08.728Z,31.50
2022-12-05T00:54:43.665Z,30.90
2022-12-05T00:57:11.761Z,31.60
2022-12-05T00:59:47.659Z,30.90
2022-12-05T01:02:22.597Z,30.60
2022-12-05T01:04:58.658Z,30.60
2022-12-05T01:07:26.812Z,31.40
2022-12-05T01:10:01.701Z,31.30
2022-12-05T01:12:29.778Z,30.10
2022-12-05T01:15:04.672Z,30.13
2022-12-05T01:17:32.767Z,29.67
2022-12-05T01:20:08.692Z,29.53
2022-12-05T01:22:36.752Z,29.83
2022-12-05T01:25:11.677Z,29.23
2022-12-05T01:27:40.021Z,29.57
2022-12-05T01:30:15.700Z,29.20
2022-12-05T01:32:44.072Z,30.10
2022-12-05T01:35:20.703Z,27.37
2022-12-05T01:37:49.049Z,27.37
2022-12-05T01:40:24.693Z,27.90
2022-12-05T01:42:53.019Z,29.83
2022-12-05T01:45:35.734Z,28.67
2022-12-05T01:48:06.684Z,26.73
2022-12-05T01:50:43.698Z,28.40
2022-12-05T01:53:12.049Z,27.70
2022-12-05T01:55:46.720Z,28.00
2022-12-05T01:58:14.923Z,27.27
2022-12-05T02:00:56.792Z,28.20
2022-12-05T02:03:31.942Z,28.50
2022-12-05T02:06:08.706Z,29.07
2022-12-05T02:08:37.473Z,28.53
2022-12-05T02:11:14.698Z,29.30
2022-12-05T02:13:54.003Z,27.43
2022-12-05T02:16:35.741Z,28.60
2022-12-05T02:19:22.162Z,28.90
2022-12-05T02:22:35.739Z,28.23
2022-12-05T02:25:20.466Z,29.73
2022-12-05T02:28:18.742Z,29.27
2022-12-05T02:30:50.984Z,28.87
2022-12-05T02:33:30.736Z,29.83
2022-12-05T02:36:04.465Z,29.90
2022-12-05T02:38:46.716Z,31.50
2022-12-05T02:41:21.108Z,29.70
2022-12-05T02:44:01.757Z,27.97
2022-12-05T02:46:34.086Z,30.57
2022-12-05T02:49:10.745Z,29.60
2022-12-05T02:51:43.342Z,28.70
2022-12-05T02:54:23.948Z,30.37
2022-12-05T02:56:53.495Z,30.67
2022-12-05T02:59:27.772Z,32.17
2022-12-05T03:02:04.080Z,32.07
2022-12-05T03:04:45.781Z,31.20
2022-12-05T03:07:15.293Z,29.37
2022-12-05T03:09:54.935Z,31.97
2022-12-05T03:12:27.095Z,31.70
2022-12-05T03:15:07.760Z,31.37
2022-12-05T03:17:43.019Z,30.53
2022-12-05T03:20:26.791Z,32.73
2022-12-05T03:23:00.043Z,31.47
2022-12-05T03:25:42.795Z,31.23
2022-12-05T03:28:20.067Z,31.20
2022-12-05T03:30:55.851Z,31.07
2022-12-05T03:33:29.788Z,31.87
2022-12-05T03:36:09.771Z,32.93
2022-12-05T03:38:45.737Z,32.83
2022-12-05T03:41:27.781Z,32.87
2022-12-05T03:43:59.246Z,33.70
2022-12-05T03:46:38.939Z,33.80
2022-12-05T03:49:14.479Z,33.53
2022-12-05T03:51:54.818Z,33.13
2022-12-05T03:54:27.369Z,34.40
2022-12-05T03:57:06.792Z,33.33
2022-12-05T03:59:39.411Z,32.23
2022-12-05T04:02:27.791Z,34.10
2022-12-05T04:05:10.913Z,34.00
2022-12-05T04:07:49.898Z,33.77
2022-12-05T04:10:23.135Z,33.50
2022-12-05T04:13:00.835Z,36.40
2022-12-05T04:15:52.320Z,33.00
2022-12-05T04:18:29.825Z,34.70
2022-12-05T04:21:18.022Z,34.00
2022-12-05T04:24:12.830Z,34.10
2022-12-05T04:26:46.219Z,32.50
2022-12-05T04:29:31.826Z,28.83
2022-12-05T04:32:05.886Z,33.73
2022-12-05T04:34:42.825Z,33.63
2022-12-05T04:37:16.441Z,34.10
2022-12-05T04:39:57.047Z,33.80
2022-12-05T04:42:27.814Z,32.60
2022-12-05T04:45:06.866Z,32.93
2022-12-05T04:47:40.428Z,32.20
2022-12-05T04:50:17.859Z,32.13
2022-12-05T04:52:51.382Z,31.90
2022-12-05T04:55:31.864Z,31.90
2022-12-05T04:58:07.330Z,30.07
2022-12-05T05:00:48.851Z,32.30
2022-12-05T05:03:29.059Z,30.47
2022-12-05T05:06:04.842Z,30.67
2022-12-05T05:08:34.260Z,30.90
2022-12-05T05:11:17.858Z,32.53
2022-12-05T05:13:46.012Z,30.07
2022-12-05T05:16:25.930Z,31.73
2022-12-05T05:18:54.278Z,29.37
2022-12-05T05:21:31.870Z,30.87
2022-12-05T05:24:01.536Z,29.20
2022-12-05T05:26:37.876Z,31.63
2022-12-05T05:29:06.300Z,30.57
2022-12-05T05:31:40.965Z,30.03
2022-12-05T05:34:10.227Z,28.87
2022-12-05T05:36:45.878Z,29.97
2022-12-05T05:39:16.715Z,29.47
2022-12-05T05:41:51.906Z,29.33
2022-12-05T05:44:19.983Z,28.30
2022-12-05T05:46:54.965Z,28.73
2022-12-05T05:49:23.104Z,29.27
2022-12-05T05:51:57.899Z,30.40
2022-12-05T05:54:27.344Z,30.17
2022-12-05T05:57:01.902Z,33.70
2022-12-05T05:59:30.025Z,36.53
2022-12-05T06:02:04.911Z,34.43
2022-12-05T06:04:39.808Z,33.30
2022-12-05T06:07:14.881Z,31.93
2022-12-05T06:09:44.314Z,34.43
2022-12-05T06:12:18.896Z,34.63
2022-12-05T06:14:49.279Z,31.70
2022-12-05T06:17:23.910Z,31.77
2022-12-05T06:19:51.995Z,34.60
2022-12-05T06:22:26.941Z,32.83
2022-12-05T06:24:56.328Z,31.40
2022-12-05T06:27:30.945Z,31.73
2022-12-05T06:29:59.253Z,32.27
2022-12-05T06:32:35.919Z,32.37
2022-12-05T06:35:10.952Z,31.17
2022-12-05T06:37:45.930Z,32.43
2022-12-05T06:40:15.806Z,32.47
2022-12-05T06:42:49.948Z,31.37
2022-12-05T06:45:18.215Z,30.67
2022-12-05T06:47:52.963Z,31.10
2022-12-05T06:50:21.368Z,31.03
2022-12-05T06:52:55.943Z,30.90
2022-12-05T06:55:25.380Z,29.43
2022-12-05T06:57:59.937Z,29.90
2022-12-05T07:00:52.177Z,31.30
2022-12-05T07:03:27.177Z,30.97
2022-12-05T07:06:01.961Z,29.77
2022-12-05T07:08:30.019Z,28.23
2022-12-05T07:11:05.975Z,28.83
2022-12-05T07:13:34.156Z,29.57
2022-12-05T07:16:09.050Z,29.83
2022-12-05T07:18:37.688Z,28.50
2022-12-05T07:21:15.231Z,29.27
2022-12-05T07:23:46.300Z,28.30
2022-12-05T07:26:26.152Z,29.03
2022-12-05T07:28:57.966Z,27.87
2022-12-05T07:31:33.038Z,28.87
2022-12-05T07:34:01.369Z,28.47
2022-12-05T07:36:35.996Z,27.73
2022-12-05T07:39:04.831Z,28.20
2022-12-05T07:41:42.000Z,28.63
2022-12-05T07:44:12.832Z,27.50
2022-12-05T07:46:48.003Z,26.57
2022-12-05T07:49:16.242Z,27.53
2022-12-05T07:51:50.988Z,25.93
2022-12-05T07:54:19.030Z,26.10
2022-12-05T07:56:54.991Z,26.70
2022-12-05T07:59:23.176Z,25.87
2022-12-05T08:02:04.023Z,26.17
2022-12-05T08:04:32.242Z,25.17
2022-12-05T08:07:07.025Z,25.63
2022-12-05T08:09:35.055Z,26.23
2022-12-05T08:12:11.034Z,24.67
2022-12-05T08:14:39.339Z,24.57
2022-12-05T08:17:14.087Z,24.70
2022-12-05T08:19:42.198Z,25.30
2022-12-05T08:22:17.046Z,24.93
2022-12-05T08:24:45.273Z,23.63
2022-12-05T08:27:21.061Z,24.50
2022-12-05T08:29:49.290Z,23.97
2022-12-05T08:32:24.052Z,22.77
2022-12-05T08:34:52.219Z,23.60
2022-12-05T08:37:27.037Z,23.93
2022-12-05T08:39:55.255Z,23.07
2022-12-05T08:42:31.032Z,22.43
2022-12-05T08:44:59.403Z,21.60
2022-12-05T08:47:35.093Z,21.83
2022-12-05T08:50:03.608Z,22.57
2022-12-05T08:52:38.055Z,22.57
2022-12-05T08:55:06.788Z,22.80
2022-12-05T08:57:43.068Z,21.77
2022-12-05T09:00:12.053Z,22.77
2022-12-05T09:02:53.097Z,21.53
2022-12-05T09:05:28.300Z,22.60
2022-12-05T09:08:06.112Z,22.07
2022-12-05T09:10:34.222Z,21.70
2022-12-05T09:13:10.096Z,21.30
2022-12-05T09:15:39.788Z,21.63
2022-12-05T09:18:14.064Z,21.53
2022-12-05T09:20:42.361Z,21.50
2022-12-05T09:23:17.226Z,22.30
2022-12-05T09:25:45.288Z,22.17
2022-12-05T09:28:21.067Z,20.80
2022-12-05T09:30:58.054Z,20.77
2022-12-05T09:33:33.263Z,20.87
2022-12-05T09:36:04.075Z,21.30
2022-12-05T09:38:39.088Z,19.80
2022-12-05T09:41:13.965Z,20.43
2022-12-05T09:43:57.094Z,20.83
2022-12-05T09:46:36.913Z,20.43
2022-12-05T09:49:13.107Z,20.00
2022-12-05T09:51:48.566Z,22.13
2022-12-05T09:54:26.102Z,22.23
2022-12-05T09:56:54.322Z,20.57
2022-12-05T09:59:30.085Z,19.87
2022-12-05T10:02:36.131Z,19.60
2022-12-05T10:05:15.169Z,18.80
2022-12-05T10:07:50.524Z,19.17
2022-12-05T10:10:35.213Z,17.23
2022-12-05T10:13:23.771Z,17.83
2022-12-05T10:16:03.237Z,18.60
2022-12-05T10:18:38.541Z,18.00
2022-12-05T10:21:22.119Z,18.70
2022-12-05T10:23:57.874Z,18.27
2022-12-05T10:26:36.114Z,17.17
2022-12-05T10:29:12.566Z,16.90
2022-12-05T10:31:51.145Z,17.13
2022-12-05T10:34:29.506Z,15.60
2022-12-05T10:37:09.157Z,15.90
2022-12-05T10:39:37.688Z,16.43
2022-12-05T10:42:08.647Z,16.50
2022-12-05T10:44:44.177Z,16.20
2022-12-05T10:47:14.026Z,15.67
2022-12-05T10:49:49.158Z,16.30
2022-12-05T10:52:17.760Z,14.50
2022-12-05T10:54:57.367Z,14.27
2022-12-05T10:57:27.416Z,15.60
2022-12-05T11:00:03.142Z,14.73
2022-12-05T11:02:53.166Z,15.77
2022-12-05T11:05:30.269Z,14.40
2022-12-05T11:08:06.274Z,14.50
2022-12-05T11:10:37.881Z,15.53
2022-12-05T11:13:24.148Z,15.20
2022-12-05T11:15:55.489Z,12.90
2022-12-05T11:18:39.161Z,14.23
2022-12-05T11:21:12.516Z,14.47
2022-12-05T11:23:47.165Z,14.17
2022-12-05T11:26:21.253Z,11.87
2022-12-05T11:28:56.197Z,12.37
2022-12-05T11:31:29.401Z,11.80
2022-12-05T11:34:17.197Z,13.30
2022-12-05T11:36:49.588Z,13.63
2022-12-05T11:39:24.352Z,14.13
2022-12-05T11:42:12.393Z,13.03
2022-12-05T11:45:02.371Z,13.60
2022-12-05T11:47:43.276Z,14.53
2022-12-05T11:50:33.211Z,14.00
2022-12-05T11:53:15.130Z,14.33
2022-12-05T11:55:58.239Z,14.27
2022-12-05T11:58:47.899Z,14.27
2022-12-05T12:01:34.272Z,14.13
2022-12-05T12:04:35.325Z,14.67
2022-12-05T12:07:32.251Z,15.13
2022-12-05T12:10:11.889Z,14.60
2022-12-05T12:12:56.245Z,14.63
2022-12-05T12:15:48.869Z,14.57
2022-12-05T12:18:32.257Z,14.23
2022-12-05T12:21:17.161Z,14.47
2022-12-05T12:24:06.215Z,14.57
2022-12-05T12:26:47.282Z,14.07
2022-12-05T12:29:34.250Z,16.07
2022-12-05T12:32:17.825Z,16.30
2022-12-05T12:35:13.257Z,16.57
2022-12-05T12:37:48.894Z,12.43
2022-12-05T12:40:30.339Z,13.83
2022-12-05T12:43:06.725Z,14.27
2022-12-05T12:46:09.627Z,11.30
2022-12-05T12:48:59.239Z,13.20
2022-12-05T12:51:30.315Z,10.80
2022-12-05T12:54:47.336Z,13.00
2022-12-05T12:57:33.251Z,11.57
2022-12-05T13:00:12.360Z,10.47
2022-12-05T13:03:00.236Z,11.20
2022-12-05T13:05:46.302Z,10.97
2022-12-05T13:08:20.722Z,10.43
2022-12-05T13:10:56.236Z,10.23
2022-12-05T13:13:31.575Z,10.43
2022-12-05T13:16:08.314Z,10.07
2022-12-05T13:18:36.722Z,8.70
2022-12-05T13:21:15.270Z,10.23
2022-12-05T13:23:48.525Z,8.77
2022-12-05T13:26:24.288Z,9.70
2022-12-05T13:28:57.032Z,10.23
2022-12-05T13:31:44.360Z,10.27
2022-12-05T13:34:52.283Z,10.63
2022-12-05T13:37:41.903Z,8.20
2022-12-05T13:40:52.266Z,9.47
2022-12-05T13:43:22.787Z,9.77
2022-12-05T13:46:13.479Z,9.90
2022-12-05T13:48:44.194Z,9.70
2022-12-05T13:51:29.284Z,8.80
2022-12-05T13:54:01.863Z,8.40
2022-12-05T13:56:55.318Z,8.83
2022-12-05T14:00:01.794Z,9.20
2022-12-05T14:03:11.344Z,9.30
2022-12-05T14:05:49.294Z,8.83
2022-12-05T14:09:03.332Z,8.97
2022-12-05T14:11:31.709Z,9.93
2022-12-05T14:14:06.337Z,9.37
2022-12-05T14:16:46.249Z,10.90
2022-12-05T14:20:05.323Z,10.30
2022-12-05T14:22:45.194Z,9.53
2022-12-05T14:25:34.342Z,11.00
2022-12-05T14:28:11.836Z,9.33
2022-12-05T14:30:58.451Z,12.30
2022-12-05T14:33:26.983Z,11.60
2022-12-05T14:36:03.351Z,11.07
2022-12-05T14:38:33.113Z,13.70
2022-12-05T14:41:21.342Z,12.17
2022-12-05T14:43:54.786Z,11.70
2022-12-05T14:46:33.386Z,12.30
2022-12-05T14:49:41.675Z,11.07
2022-12-05T14:52:27.353Z,11.77
2022-12-05T14:55:01.272Z,12.23
2022-12-05T14:57:36.357Z,11.57
2022-12-05T15:00:07.882Z,11.73
2022-12-05T15:02:48.359Z,12.10
2022-12-05T15:05:23.451Z,11.50
2022-12-05T15:08:01.403Z,12.10
2022-12-05T15:10:33.264Z,11.30
2022-12-05T15:13:11.371Z,12.37
2022-12-05T15:15:45.248Z,12.30
2022-12-05T15:18:29.367Z,12.20
2022-12-05T15:21:01.495Z,12.33
2022-12-05T15:23:52.371Z,12.70
2022-12-05T15:29:22.391Z,13.10
2022-12-05T15:31:52.616Z,14.20
2022-12-05T15:34:31.415Z,14.10
2022-12-05T15:37:03.895Z,13.70
2022-12-05T15:39:59.381Z,13.70
2022-12-05T15:42:30.772Z,13.60
2022-12-05T15:45:30.379Z,13.10
2022-12-05T15:48:12.716Z,13.67
2022-12-05T15:50:49.399Z,13.47
2022-12-05T15:53:24.238Z,13.37
2022-12-05T15:56:03.443Z,14.37
2022-12-05T15:58:35.811Z,13.93
2022-12-05T16:01:16.465Z,13.37
2022-12-05T16:03:56.589Z,14.70
2022-12-05T16:06:42.396Z,13.87
2022-12-05T16:09:16.629Z,13.80
2022-12-05T16:12:00.430Z,14.63
2022-12-05T16:14:59.010Z,14.03
2022-12-05T16:17:29.429Z,13.93
2022-12-05T16:20:18.645Z,14.60
2022-12-05T16:22:49.321Z,14.30
2022-12-05T16:25:26.453Z,15.03
2022-12-05T16:28:01.223Z,14.50
2022-12-05T16:30:37.434Z,15.50
2022-12-05T16:33:08.857Z,15.80
2022-12-05T16:35:46.443Z,16.10
2022-12-05T16:38:19.480Z,15.40
2022-12-05T16:41:03.459Z,15.93
2022-12-05T16:43:46.110Z,17.40
2022-12-05T16:46:50.574Z,17.40
2022-12-05T16:49:32.671Z,19.20
2022-12-05T16:52:09.460Z,21.17
2022-12-05T16:54:37.589Z,19.43
2022-12-05T16:57:06.008Z,19.13
2022-12-05T16:59:44.486Z,18.50
2022-12-05T17:02:21.729Z,21.43
2022-12-05T17:05:03.467Z,20.53
2022-12-05T17:07:38.522Z,20.60
2022-12-05T17:10:07.906Z,21.67
2022-12-05T17:12:47.581Z,19.90
2022-12-05T17:15:18.921Z,20.63
2022-12-05T17:17:54.461Z,31.10
2022-12-05T17:20:22.676Z,45.77
2022-12-05T17:22:57.483Z,51.80
2022-12-05T17:25:32.117Z,33.87
2022-12-05T17:28:06.466Z,22.27
2022-12-05T17:30:36.049Z,18.87
2022-12-05T17:33:10.496Z,21.30
2022-12-05T17:35:38.764Z,22.70
2022-12-05T17:38:13.492Z,77.03
2022-12-05T17:40:41.640Z,47.03
2022-12-05T17:43:24.520Z,32.43
2022-12-05T17:45:54.963Z,27.47
2022-12-05T17:48:29.489Z,25.03
2022-12-05T17:50:58.843Z,21.47
2022-12-05T17:53:33.498Z,24.13
2022-12-05T17:56:01.554Z,23.67
2022-12-05T17:58:36.533Z,20.47
2022-12-05T18:01:06.253Z,21.47
2022-12-05T18:03:47.488Z,22.10
2022-12-05T18:06:15.976Z,22.57
2022-12-05T18:08:51.513Z,24.20
2022-12-05T18:11:19.756Z,21.87
2022-12-05T18:13:54.543Z,26.10
2022-12-05T18:16:24.034Z,24.83
2022-12-05T18:18:58.541Z,24.57
2022-12-05T18:21:26.635Z,24.13
2022-12-05T18:24:01.524Z,25.30
2022-12-05T18:26:29.636Z,27.23
2022-12-05T18:29:05.513Z,23.97
2022-12-05T18:31:35.241Z,28.50
2022-12-05T18:34:09.537Z,26.70
2022-12-05T18:36:37.771Z,28.07
2022-12-05T18:39:12.530Z,27.40
2022-12-05T18:41:40.530Z,26.50
2022-12-05T18:44:16.554Z,28.47
2022-12-05T18:46:46.075Z,28.27
2022-12-05T18:49:21.532Z,29.03
2022-12-05T18:51:49.714Z,30.37
2022-12-05T18:54:24.543Z,37.83
2022-12-05T18:56:53.402Z,27.30
2022-12-05T18:59:29.550Z,27.77
2022-12-05T19:01:59.952Z,30.60
2022-12-05T19:04:41.578Z,24.53
2022-12-05T19:07:15.789Z,24.03
2022-12-05T19:09:50.683Z,23.33
2022-12-05T19:12:18.770Z,26.20
2022-12-05T19:14:54.549Z,26.60
2022-12-05T19:17:24.755Z,26.40
2022-12-05T19:20:00.576Z,27.20
2022-12-05T19:22:30.323Z,27.40
2022-12-05T19:25:04.576Z,26.13
2022-12-05T19:27:32.697Z,26.00
2022-12-05T19:30:10.041Z,25.90
2022-12-05T19:32:40.779Z,25.60
2022-12-05T19:35:17.611Z,26.10
2022-12-05T19:37:45.648Z,27.03
2022-12-05T19:40:20.595Z,26.53
2022-12-05T19:42:48.735Z,27.30
2022-12-05T19:45:23.611Z,26.37
2022-12-05T19:47:53.133Z,28.60
2022-12-05T19:50:27.602Z,28.57
2022-12-05T19:52:55.694Z,27.87
2022-12-05T19:55:30.626Z,25.90
2022-12-05T19:57:58.744Z,24.53
2022-12-05T20:00:33.589Z,27.70
2022-12-05T20:03:23.731Z,29.77
2022-12-05T20:06:05.606Z,29.10
2022-12-05T20:08:34.357Z,26.30
2022-12-05T20:11:12.633Z,24.67
2022-12-05T20:13:49.020Z,24.83
2022-12-05T20:16:25.645Z,25.40
2022-12-05T20:18:57.987Z,29.27
2022-12-05T20:21:34.673Z,28.70
2022-12-05T20:24:04.335Z,29.30
2022-12-05T20:26:40.625Z,32.40
2022-12-05T20:29:09.371Z,30.37
2022-12-05T20:31:45.629Z,29.60
2022-12-05T20:34:15.825Z,29.97
2022-12-05T20:36:50.657Z,29.77
2022-12-05T20:39:19.239Z,26.77
2022-12-05T20:41:53.755Z,27.23
2022-12-05T20:44:21.978Z,27.97
2022-12-05T20:46:57.663Z,27.10
2022-12-05T20:49:27.136Z,32.37
2022-12-05T20:52:01.730Z,33.73
2022-12-05T20:54:29.790Z,29.93
2022-12-05T20:57:04.683Z,27.63
2022-12-05T20:59:32.748Z,32.53
2022-12-05T21:02:07.753Z,27.07
2022-12-05T21:04:57.643Z,32.70
2022-12-05T21:07:32.724Z,32.00
2022-12-05T21:10:06.431Z,31.80
2022-12-05T21:12:42.676Z,34.87
2022-12-05T21:15:11.738Z,30.63
2022-12-05T21:17:46.671Z,34.27
2022-12-05T21:20:18.712Z,31.30
2022-12-05T21:22:53.671Z,35.73
2022-12-05T21:25:21.938Z,30.37
2022-12-05T21:27:56.694Z,31.80
2022-12-05T21:30:24.764Z,33.20
2022-12-05T21:32:59.689Z,34.53
2022-12-05T21:35:29.105Z,31.03
2022-12-05T21:38:03.718Z,39.33
2022-12-05T21:40:31.846Z,35.30
2022-12-05T21:43:06.725Z,31.50
2022-12-05T21:45:38.789Z,30.37
2022-12-05T21:48:16.736Z,28.97
2022-12-05T21:50:52.713Z,28.67
2022-12-05T21:53:21.522Z,37.70
2022-12-05T21:55:56.735Z,29.70
2022-12-05T21:58:24.804Z,29.23
2022-12-05T22:01:00.748Z,31.43
2022-12-05T22:03:48.704Z,28.93
2022-12-05T22:06:24.705Z,30.57
2022-12-05T22:08:52.781Z,31.50
2022-12-05T22:11:29.736Z,26.70
2022-12-05T22:13:57.827Z,25.80
2022-12-05T22:16:33.697Z,31.50
2022-12-05T22:19:02.103Z,39.10
2022-12-05T22:21:40.701Z,31.07
2022-12-05T22:24:08.955Z,27.80
2022-12-05T22:26:43.713Z,25.50
2022-12-05T22:29:11.800Z,27.23
2022-12-05T22:31:46.827Z,25.20
2022-12-05T22:34:15.055Z,23.30
2022-12-05T22:36:50.728Z,23.13
2022-12-05T22:39:18.839Z,24.30
2022-12-05T22:41:53.732Z,24.10
2022-12-05T22:44:21.908Z,24.47
2022-12-05T22:46:56.825Z,22.57
2022-12-05T22:49:25.293Z,21.20
2022-12-05T22:52:01.788Z,24.60
2022-12-05T22:54:30.442Z,22.00
2022-12-05T22:57:04.747Z,21.63
2022-12-05T22:59:32.810Z,22.27
2022-12-05T23:02:07.739Z,21.80
2022-12-05T23:04:55.780Z,22.83
2022-12-05T23:07:31.835Z,25.40
2022-12-05T23:10:00.540Z,23.67
2022-12-05T23:12:35.777Z,27.83
2022-12-05T23:15:04.127Z,27.10
2022-12-05T23:17:38.773Z,28.40
2022-12-05T23:20:08.356Z,22.00
2022-12-05T23:22:44.754Z,25.70
2022-12-05T23:25:13.107Z,19.20
2022-12-05T23:27:47.779Z,22.97
2022-12-05T23:30:16.607Z,21.93
2022-12-05T23:32:51.783Z,20.83
2022-12-05T23:35:20.131Z,20.10
2022-12-05T23:37:56.793Z,18.90
2022-12-05T23:40:25.122Z,20.30
2022-12-05T23:42:59.966Z,18.63
2022-12-05T23:45:28.869Z,18.93
2022-12-05T23:48:04.764Z,19.77
2022-12-05T23:50:33.389Z,17.50
2022-12-05T23:53:09.922Z,18.67
2022-12-05T23:55:38.287Z,20.13
2022-12-05T23:58:13.812Z,19.53
